sensor_id;sensor_type;location;lat;lon;timestamp;P1;durP1;ratioP1;P2;durP2;ratioP2
51332;SDS011;37417;48.118;11.734;2023-08-17T00:02:24;6.63;;;5.75;;
51332;SDS011;37417;48.118;11.734;2023-08-17T00:05:11;6.03;;;5.13;;
51332;SDS011;37417;48.118;11.734;2023-08-17T00:07:57;6.30;;;5.25;;
51332;SDS011;37417;48.118;11.734;2023-08-17T00:10:42;5.85;;;5.25;;
51332;SDS011;37417;48.118;11.734;2023-08-17T00:13:28;8.98;;;5.45;;
51332;SDS011;37417;48.118;11.734;2023-08-17T00:16:14;5.32;;;4.75;;
51332;SDS011;37417;48.118;11.734;2023-08-17T00:19:00;8.07;;;5.22;;
51332;SDS011;37417;48.118;11.734;2023-08-17T00:21:45;6.35;;;4.72;;
51332;SDS011;37417;48.118;11.734;2023-08-17T00:24:31;5.40;;;4.90;;
51332;SDS011;37417;48.118;11.734;2023-08-17T00:27:17;8.20;;;4.97;;
51332;SDS011;37417;48.118;11.734;2023-08-17T00:30:02;6.28;;;4.80;;
51332;SDS011;37417;48.118;11.734;2023-08-17T00:32:49;8.68;;;5.47;;
51332;SDS011;37417;48.118;11.734;2023-08-17T00:35:34;6.70;;;5.00;;
51332;SDS011;37417;48.118;11.734;2023-08-17T00:38:20;7.13;;;5.13;;
51332;SDS011;37417;48.118;11.734;2023-08-17T00:41:05;6.55;;;5.30;;
51332;SDS011;37417;48.118;11.734;2023-08-17T00:43:51;5.82;;;5.30;;
51332;SDS011;37417;48.118;11.734;2023-08-17T00:46:37;8.07;;;4.43;;
51332;SDS011;37417;48.118;11.734;2023-08-17T00:49:23;7.40;;;5.20;;
51332;SDS011;37417;48.118;11.734;2023-08-17T00:52:09;6.20;;;5.10;;
51332;SDS011;37417;48.118;11.734;2023-08-17T00:54:56;5.55;;;4.93;;
51332;SDS011;37417;48.118;11.734;2023-08-17T00:57:42;5.60;;;4.50;;
51332;SDS011;37417;48.118;11.734;2023-08-17T01:00:28;7.35;;;5.25;;
51332;SDS011;37417;48.118;11.734;2023-08-17T01:03:13;8.40;;;5.22;;
51332;SDS011;37417;48.118;11.734;2023-08-17T01:06:00;7.75;;;5.57;;
51332;SDS011;37417;48.118;11.734;2023-08-17T01:08:47;5.63;;;5.13;;
51332;SDS011;37417;48.118;11.734;2023-08-17T01:11:37;6.00;;;5.03;;
51332;SDS011;37417;48.118;11.734;2023-08-17T01:14:37;5.85;;;4.68;;
51332;SDS011;37417;48.118;11.734;2023-08-17T01:17:29;4.78;;;4.15;;
51332;SDS011;37417;48.118;11.734;2023-08-17T01:20:19;5.00;;;4.50;;
51332;SDS011;37417;48.118;11.734;2023-08-17T01:23:05;6.65;;;5.32;;
51332;SDS011;37417;48.118;11.734;2023-08-17T01:25:51;6.90;;;5.38;;
51332;SDS011;37417;48.118;11.734;2023-08-17T01:28:38;8.70;;;4.82;;
51332;SDS011;37417;48.118;11.734;2023-08-17T01:31:25;7.50;;;5.65;;
51332;SDS011;37417;48.118;11.734;2023-08-17T01:34:33;7.38;;;5.70;;
51332;SDS011;37417;48.118;11.734;2023-08-17T01:37:26;7.10;;;5.07;;
51332;SDS011;37417;48.118;11.734;2023-08-17T01:40:14;8.18;;;5.13;;
51332;SDS011;37417;48.118;11.734;2023-08-17T01:43:02;7.03;;;5.82;;
51332;SDS011;37417;48.118;11.734;2023-08-17T01:45:48;6.68;;;6.05;;
51332;SDS011;37417;48.118;11.734;2023-08-17T01:48:33;8.48;;;6.28;;
51332;SDS011;37417;48.118;11.734;2023-08-17T01:51:19;6.93;;;6.05;;
51332;SDS011;37417;48.118;11.734;2023-08-17T01:54:05;6.28;;;5.68;;
51332;SDS011;37417;48.118;11.734;2023-08-17T01:56:51;11.02;;;6.00;;
51332;SDS011;37417;48.118;11.734;2023-08-17T01:59:37;10.02;;;5.55;;
51332;SDS011;37417;48.118;11.734;2023-08-17T02:02:22;7.45;;;5.95;;
51332;SDS011;37417;48.118;11.734;2023-08-17T02:05:08;6.07;;;5.47;;
51332;SDS011;37417;48.118;11.734;2023-08-17T02:07:54;7.63;;;6.10;;
51332;SDS011;37417;48.118;11.734;2023-08-17T02:10:39;6.22;;;5.45;;
51332;SDS011;37417;48.118;11.734;2023-08-17T02:13:25;5.93;;;5.40;;
51332;SDS011;37417;48.118;11.734;2023-08-17T02:16:12;7.20;;;6.22;;
51332;SDS011;37417;48.118;11.734;2023-08-17T02:18:58;6.93;;;5.50;;
51332;SDS011;37417;48.118;11.734;2023-08-17T02:21:44;6.43;;;5.70;;
51332;SDS011;37417;48.118;11.734;2023-08-17T02:24:30;10.77;;;7.50;;
51332;SDS011;37417;48.118;11.734;2023-08-17T02:27:15;11.00;;;6.25;;
51332;SDS011;37417;48.118;11.734;2023-08-17T02:30:02;7.53;;;6.10;;
51332;SDS011;37417;48.118;11.734;2023-08-17T02:32:51;13.85;;;6.57;;
51332;SDS011;37417;48.118;11.734;2023-08-17T02:35:37;7.95;;;6.47;;
51332;SDS011;37417;48.118;11.734;2023-08-17T02:38:23;8.13;;;6.47;;
51332;SDS011;37417;48.118;11.734;2023-08-17T02:41:08;6.32;;;5.65;;
51332;SDS011;37417;48.118;11.734;2023-08-17T02:43:54;6.38;;;5.78;;
51332;SDS011;37417;48.118;11.734;2023-08-17T02:46:39;7.43;;;5.90;;
51332;SDS011;37417;48.118;11.734;2023-08-17T02:49:25;6.80;;;5.95;;
51332;SDS011;37417;48.118;11.734;2023-08-17T02:52:11;6.90;;;6.15;;
51332;SDS011;37417;48.118;11.734;2023-08-17T02:54:56;9.75;;;6.18;;
51332;SDS011;37417;48.118;11.734;2023-08-17T02:57:42;7.45;;;6.22;;
51332;SDS011;37417;48.118;11.734;2023-08-17T03:00:28;8.32;;;6.63;;
51332;SDS011;37417;48.118;11.734;2023-08-17T03:03:13;9.18;;;6.18;;
51332;SDS011;37417;48.118;11.734;2023-08-17T03:05:59;7.68;;;6.68;;
51332;SDS011;37417;48.118;11.734;2023-08-17T03:08:45;7.22;;;6.25;;
51332;SDS011;37417;48.118;11.734;2023-08-17T03:11:30;7.03;;;6.32;;
51332;SDS011;37417;48.118;11.734;2023-08-17T03:14:16;7.97;;;6.53;;
51332;SDS011;37417;48.118;11.734;2023-08-17T03:17:02;10.35;;;7.63;;
51332;SDS011;37417;48.118;11.734;2023-08-17T03:19:47;8.52;;;7.22;;
51332;SDS011;37417;48.118;11.734;2023-08-17T03:22:33;6.43;;;5.80;;
51332;SDS011;37417;48.118;11.734;2023-08-17T03:25:19;7.10;;;6.20;;
51332;SDS011;37417;48.118;11.734;2023-08-17T03:28:06;7.80;;;6.20;;
51332;SDS011;37417;48.118;11.734;2023-08-17T03:30:55;6.45;;;5.85;;
51332;SDS011;37417;48.118;11.734;2023-08-17T03:33:41;6.60;;;5.43;;
51332;SDS011;37417;48.118;11.734;2023-08-17T03:36:26;6.80;;;5.97;;
51332;SDS011;37417;48.118;11.734;2023-08-17T03:39:12;8.13;;;5.85;;
51332;SDS011;37417;48.118;11.734;2023-08-17T03:41:58;7.65;;;5.70;;
51332;SDS011;37417;48.118;11.734;2023-08-17T03:44:43;6.95;;;5.22;;
51332;SDS011;37417;48.118;11.734;2023-08-17T03:47:29;9.55;;;5.82;;
51332;SDS011;37417;48.118;11.734;2023-08-17T03:50:15;6.15;;;5.55;;
51332;SDS011;37417;48.118;11.734;2023-08-17T03:53:00;7.75;;;5.97;;
51332;SDS011;37417;48.118;11.734;2023-08-17T03:55:49;7.75;;;6.25;;
51332;SDS011;37417;48.118;11.734;2023-08-17T03:58:35;7.68;;;6.30;;
51332;SDS011;37417;48.118;11.734;2023-08-17T04:01:21;6.82;;;5.50;;
51332;SDS011;37417;48.118;11.734;2023-08-17T04:04:07;8.23;;;6.60;;
51332;SDS011;37417;48.118;11.734;2023-08-17T04:06:52;6.15;;;5.57;;
51332;SDS011;37417;48.118;11.734;2023-08-17T04:09:38;9.02;;;6.75;;
51332;SDS011;37417;48.118;11.734;2023-08-17T04:12:29;8.97;;;6.27;;
51332;SDS011;37417;48.118;11.734;2023-08-17T04:15:15;8.02;;;6.60;;
51332;SDS011;37417;48.118;11.734;2023-08-17T04:18:00;9.27;;;8.27;;
51332;SDS011;37417;48.118;11.734;2023-08-17T04:20:46;9.57;;;7.88;;
51332;SDS011;37417;48.118;11.734;2023-08-17T04:23:32;11.52;;;7.40;;
51332;SDS011;37417;48.118;11.734;2023-08-17T04:26:17;10.75;;;7.78;;
51332;SDS011;37417;48.118;11.734;2023-08-17T04:29:03;8.68;;;7.68;;
51332;SDS011;37417;48.118;11.734;2023-08-17T04:31:49;11.05;;;7.75;;
51332;SDS011;37417;48.118;11.734;2023-08-17T04:34:34;13.15;;;9.15;;
51332;SDS011;37417;48.118;11.734;2023-08-17T04:37:20;10.50;;;8.25;;
51332;SDS011;37417;48.118;11.734;2023-08-17T04:40:06;9.45;;;8.00;;
51332;SDS011;37417;48.118;11.734;2023-08-17T04:42:53;7.28;;;6.53;;
51332;SDS011;37417;48.118;11.734;2023-08-17T04:45:39;8.45;;;7.55;;
51332;SDS011;37417;48.118;11.734;2023-08-17T04:48:24;10.57;;;6.53;;
51332;SDS011;37417;48.118;11.734;2023-08-17T04:51:10;7.18;;;5.95;;
51332;SDS011;37417;48.118;11.734;2023-08-17T04:53:55;7.32;;;5.63;;
51332;SDS011;37417;48.118;11.734;2023-08-17T04:56:41;8.35;;;6.13;;
51332;SDS011;37417;48.118;11.734;2023-08-17T04:59:28;8.07;;;6.45;;
51332;SDS011;37417;48.118;11.734;2023-08-17T05:02:14;7.28;;;5.68;;
51332;SDS011;37417;48.118;11.734;2023-08-17T05:05:02;6.72;;;5.82;;
51332;SDS011;37417;48.118;11.734;2023-08-17T05:07:49;6.55;;;5.95;;
51332;SDS011;37417;48.118;11.734;2023-08-17T05:10:34;6.13;;;5.53;;
51332;SDS011;37417;48.118;11.734;2023-08-17T05:13:20;5.82;;;4.60;;
51332;SDS011;37417;48.118;11.734;2023-08-17T05:16:06;5.57;;;5.00;;
51332;SDS011;37417;48.118;11.734;2023-08-17T05:18:52;5.72;;;4.72;;
51332;SDS011;37417;48.118;11.734;2023-08-17T05:21:37;5.57;;;5.07;;
51332;SDS011;37417;48.118;11.734;2023-08-17T05:24:23;6.10;;;5.50;;
51332;SDS011;37417;48.118;11.734;2023-08-17T05:27:09;5.32;;;4.60;;
51332;SDS011;37417;48.118;11.734;2023-08-17T05:29:55;7.07;;;4.32;;
51332;SDS011;37417;48.118;11.734;2023-08-17T05:32:41;4.03;;;3.70;;
51332;SDS011;37417;48.118;11.734;2023-08-17T05:35:26;4.80;;;4.32;;
51332;SDS011;37417;48.118;11.734;2023-08-17T05:38:13;5.78;;;4.07;;
51332;SDS011;37417;48.118;11.734;2023-08-17T05:40:59;4.03;;;3.70;;
51332;SDS011;37417;48.118;11.734;2023-08-17T05:43:45;6.38;;;3.72;;
51332;SDS011;37417;48.118;11.734;2023-08-17T05:46:30;6.35;;;3.60;;
51332;SDS011;37417;48.118;11.734;2023-08-17T05:49:16;3.88;;;3.47;;
51332;SDS011;37417;48.118;11.734;2023-08-17T05:52:02;3.97;;;3.15;;
51332;SDS011;37417;48.118;11.734;2023-08-17T05:54:47;4.53;;;3.45;;
51332;SDS011;37417;48.118;11.734;2023-08-17T05:57:33;8.07;;;3.97;;
51332;SDS011;37417;48.118;11.734;2023-08-17T06:00:19;4.82;;;3.42;;
51332;SDS011;37417;48.118;11.734;2023-08-17T06:03:05;9.98;;;3.80;;
51332;SDS011;37417;48.118;11.734;2023-08-17T06:05:52;6.22;;;3.15;;
51332;SDS011;37417;48.118;11.734;2023-08-17T06:08:38;3.78;;;3.15;;
51332;SDS011;37417;48.118;11.734;2023-08-17T06:11:24;3.22;;;2.92;;
51332;SDS011;37417;48.118;11.734;2023-08-17T06:14:09;3.47;;;3.08;;
51332;SDS011;37417;48.118;11.734;2023-08-17T06:16:55;3.10;;;2.90;;
51332;SDS011;37417;48.118;11.734;2023-08-17T06:19:40;3.38;;;3.00;;
51332;SDS011;37417;48.118;11.734;2023-08-17T06:22:27;3.63;;;2.78;;
51332;SDS011;37417;48.118;11.734;2023-08-17T06:25:12;4.13;;;2.45;;
51332;SDS011;37417;48.118;11.734;2023-08-17T06:27:58;5.15;;;2.97;;
51332;SDS011;37417;48.118;11.734;2023-08-17T06:30:44;2.50;;;2.25;;
51332;SDS011;37417;48.118;11.734;2023-08-17T06:33:29;4.40;;;2.75;;
51332;SDS011;37417;48.118;11.734;2023-08-17T06:36:15;2.67;;;2.47;;
51332;SDS011;37417;48.118;11.734;2023-08-17T06:39:02;2.33;;;2.13;;
51332;SDS011;37417;48.118;11.734;2023-08-17T06:41:48;2.08;;;1.88;;
51332;SDS011;37417;48.118;11.734;2023-08-17T06:44:33;5.32;;;2.00;;
51332;SDS011;37417;48.118;11.734;2023-08-17T06:47:19;2.17;;;1.92;;
51332;SDS011;37417;48.118;11.734;2023-08-17T06:50:05;2.40;;;2.08;;
51332;SDS011;37417;48.118;11.734;2023-08-17T06:52:50;2.85;;;2.38;;
51332;SDS011;37417;48.118;11.734;2023-08-17T06:55:36;2.10;;;1.80;;
51332;SDS011;37417;48.118;11.734;2023-08-17T06:58:22;2.55;;;1.77;;
51332;SDS011;37417;48.118;11.734;2023-08-17T07:01:07;5.20;;;2.47;;
51332;SDS011;37417;48.118;11.734;2023-08-17T07:03:53;2.55;;;2.30;;
51332;SDS011;37417;48.118;11.734;2023-08-17T07:06:38;2.30;;;2.10;;
51332;SDS011;37417;48.118;11.734;2023-08-17T07:09:26;2.83;;;2.40;;
51332;SDS011;37417;48.118;11.734;2023-08-17T07:12:13;2.63;;;2.28;;
51332;SDS011;37417;48.118;11.734;2023-08-17T07:14:59;4.35;;;2.28;;
51332;SDS011;37417;48.118;11.734;2023-08-17T07:17:44;2.83;;;2.00;;
51332;SDS011;37417;48.118;11.734;2023-08-17T07:20:30;4.43;;;2.47;;
51332;SDS011;37417;48.118;11.734;2023-08-17T07:23:16;2.35;;;1.95;;
51332;SDS011;37417;48.118;11.734;2023-08-17T07:26:02;2.33;;;1.95;;
51332;SDS011;37417;48.118;11.734;2023-08-17T07:28:47;2.40;;;2.20;;
51332;SDS011;37417;48.118;11.734;2023-08-17T07:31:33;2.55;;;2.35;;
51332;SDS011;37417;48.118;11.734;2023-08-17T07:34:22;2.78;;;2.30;;
51332;SDS011;37417;48.118;11.734;2023-08-17T07:37:08;2.90;;;2.42;;
51332;SDS011;37417;48.118;11.734;2023-08-17T07:39:53;2.80;;;2.42;;
51332;SDS011;37417;48.118;11.734;2023-08-17T07:42:39;2.42;;;2.22;;
51332;SDS011;37417;48.118;11.734;2023-08-17T07:45:25;2.10;;;1.92;;
51332;SDS011;37417;48.118;11.734;2023-08-17T07:48:10;4.15;;;2.30;;
51332;SDS011;37417;48.118;11.734;2023-08-17T07:50:56;2.45;;;2.22;;
51332;SDS011;37417;48.118;11.734;2023-08-17T07:53:42;3.70;;;2.90;;
51332;SDS011;37417;48.118;11.734;2023-08-17T07:56:27;3.47;;;2.50;;
51332;SDS011;37417;48.118;11.734;2023-08-17T07:59:13;2.72;;;2.40;;
51332;SDS011;37417;48.118;11.734;2023-08-17T08:01:59;2.30;;;2.08;;
51332;SDS011;37417;48.118;11.734;2023-08-17T08:04:45;2.40;;;2.20;;
51332;SDS011;37417;48.118;11.734;2023-08-17T08:07:30;5.05;;;2.85;;
51332;SDS011;37417;48.118;11.734;2023-08-17T08:10:16;2.45;;;1.98;;
51332;SDS011;37417;48.118;11.734;2023-08-17T08:13:02;3.60;;;2.10;;
51332;SDS011;37417;48.118;11.734;2023-08-17T08:15:48;2.78;;;1.77;;
51332;SDS011;37417;48.118;11.734;2023-08-17T08:18:34;2.40;;;1.92;;
51332;SDS011;37417;48.118;11.734;2023-08-17T08:21:20;2.42;;;1.92;;
51332;SDS011;37417;48.118;11.734;2023-08-17T08:24:05;4.00;;;2.30;;
51332;SDS011;37417;48.118;11.734;2023-08-17T08:26:51;4.82;;;2.30;;
51332;SDS011;37417;48.118;11.734;2023-08-17T08:29:38;3.83;;;2.20;;
51332;SDS011;37417;48.118;11.734;2023-08-17T08:32:26;2.95;;;2.65;;
51332;SDS011;37417;48.118;11.734;2023-08-17T08:35:12;2.58;;;1.77;;
51332;SDS011;37417;48.118;11.734;2023-08-17T08:37:58;2.70;;;2.50;;
51332;SDS011;37417;48.118;11.734;2023-08-17T08:40:44;3.00;;;2.35;;
51332;SDS011;37417;48.118;11.734;2023-08-17T08:43:32;2.17;;;2.00;;
51332;SDS011;37417;48.118;11.734;2023-08-17T08:46:18;2.45;;;1.90;;
51332;SDS011;37417;48.118;11.734;2023-08-17T08:49:06;4.47;;;2.08;;
51332;SDS011;37417;48.118;11.734;2023-08-17T08:51:54;6.55;;;2.55;;
51332;SDS011;37417;48.118;11.734;2023-08-17T08:54:45;2.30;;;2.10;;
51332;SDS011;37417;48.118;11.734;2023-08-17T08:57:35;4.28;;;2.42;;
51332;SDS011;37417;48.118;11.734;2023-08-17T09:00:22;2.70;;;2.50;;
51332;SDS011;37417;48.118;11.734;2023-08-17T09:03:08;2.38;;;1.67;;
51332;SDS011;37417;48.118;11.734;2023-08-17T09:05:54;2.40;;;1.92;;
51332;SDS011;37417;48.118;11.734;2023-08-17T09:08:43;2.75;;;2.55;;
51332;SDS011;37417;48.118;11.734;2023-08-17T09:11:29;3.05;;;2.30;;
51332;SDS011;37417;48.118;11.734;2023-08-17T09:14:15;3.10;;;2.35;;
51332;SDS011;37417;48.118;11.734;2023-08-17T09:17:01;4.50;;;2.00;;
51332;SDS011;37417;48.118;11.734;2023-08-17T09:19:47;3.05;;;2.00;;
51332;SDS011;37417;48.118;11.734;2023-08-17T09:22:37;4.35;;;2.00;;
51332;SDS011;37417;48.118;11.734;2023-08-17T09:25:24;4.88;;;2.03;;
51332;SDS011;37417;48.118;11.734;2023-08-17T09:28:11;1.80;;;1.70;;
51332;SDS011;37417;48.118;11.734;2023-08-17T09:31:01;2.20;;;2.00;;
51332;SDS011;37417;48.118;11.734;2023-08-17T09:33:50;3.70;;;2.05;;
51332;SDS011;37417;48.118;11.734;2023-08-17T09:36:36;1.88;;;1.77;;
51332;SDS011;37417;48.118;11.734;2023-08-17T09:39:22;2.42;;;2.17;;
51332;SDS011;37417;48.118;11.734;2023-08-17T09:42:08;2.97;;;1.77;;
51332;SDS011;37417;48.118;11.734;2023-08-17T09:44:55;2.30;;;2.10;;
51332;SDS011;37417;48.118;11.734;2023-08-17T09:47:42;1.90;;;1.73;;
51332;SDS011;37417;48.118;11.734;2023-08-17T09:50:28;2.13;;;1.80;;
51332;SDS011;37417;48.118;11.734;2023-08-17T09:53:17;2.22;;;2.03;;
51332;SDS011;37417;48.118;11.734;2023-08-17T09:56:04;4.63;;;1.85;;
51332;SDS011;37417;48.118;11.734;2023-08-17T09:58:52;6.35;;;2.13;;
51332;SDS011;37417;48.118;11.734;2023-08-17T10:01:38;2.10;;;2.00;;
51332;SDS011;37417;48.118;11.734;2023-08-17T10:04:24;2.72;;;2.10;;
51332;SDS011;37417;48.118;11.734;2023-08-17T10:07:13;2.35;;;2.15;;
51332;SDS011;37417;48.118;11.734;2023-08-17T10:10:02;2.40;;;1.95;;
51332;SDS011;37417;48.118;11.734;2023-08-17T10:12:53;4.93;;;2.17;;
51332;SDS011;37417;48.118;11.734;2023-08-17T10:22:48;5.30;;;2.60;;
51332;SDS011;37417;48.118;11.734;2023-08-17T10:28:47;3.13;;;2.08;;
51332;SDS011;37417;48.118;11.734;2023-08-17T10:31:35;6.07;;;2.53;;
51332;SDS011;37417;48.118;11.734;2023-08-17T10:34:23;4.10;;;2.40;;
51332;SDS011;37417;48.118;11.734;2023-08-17T10:37:10;2.25;;;2.00;;
51332;SDS011;37417;48.118;11.734;2023-08-17T10:39:57;2.60;;;2.40;;
51332;SDS011;37417;48.118;11.734;2023-08-17T10:42:43;11.07;;;4.07;;
51332;SDS011;37417;48.118;11.734;2023-08-17T10:45:29;2.38;;;2.17;;
51332;SDS011;37417;48.118;11.734;2023-08-17T10:51:02;2.33;;;1.90;;
51332;SDS011;37417;48.118;11.734;2023-08-17T10:53:49;1.92;;;1.63;;
51332;SDS011;37417;48.118;11.734;2023-08-17T10:56:39;2.53;;;2.33;;
51332;SDS011;37417;48.118;11.734;2023-08-17T10:59:25;5.22;;;2.70;;
51332;SDS011;37417;48.118;11.734;2023-08-17T11:02:11;3.15;;;2.05;;
51332;SDS011;37417;48.118;11.734;2023-08-17T11:04:57;2.25;;;2.05;;
51332;SDS011;37417;48.118;11.734;2023-08-17T11:07:43;2.47;;;2.00;;
51332;SDS011;37417;48.118;11.734;2023-08-17T11:10:29;2.50;;;1.98;;
51332;SDS011;37417;48.118;11.734;2023-08-17T11:13:15;4.90;;;2.63;;
51332;SDS011;37417;48.118;11.734;2023-08-17T11:16:01;2.75;;;2.47;;
51332;SDS011;37417;48.118;11.734;2023-08-17T11:18:49;3.83;;;2.20;;
51332;SDS011;37417;48.118;11.734;2023-08-17T11:21:35;2.33;;;2.13;;
51332;SDS011;37417;48.118;11.734;2023-08-17T11:24:21;3.63;;;2.15;;
51332;SDS011;37417;48.118;11.734;2023-08-17T11:27:07;2.83;;;2.55;;
51332;SDS011;37417;48.118;11.734;2023-08-17T11:29:53;2.72;;;2.53;;
51332;SDS011;37417;48.118;11.734;2023-08-17T11:32:39;3.85;;;2.38;;
51332;SDS011;37417;48.118;11.734;2023-08-17T11:35:24;2.60;;;2.40;;
51332;SDS011;37417;48.118;11.734;2023-08-17T11:38:10;9.15;;;3.35;;
51332;SDS011;37417;48.118;11.734;2023-08-17T11:40:57;2.85;;;2.63;;
51332;SDS011;37417;48.118;11.734;2023-08-17T11:43:43;2.58;;;2.38;;
51332;SDS011;37417;48.118;11.734;2023-08-17T11:46:30;5.13;;;2.90;;
51332;SDS011;37417;48.118;11.734;2023-08-17T11:49:17;2.53;;;2.22;;
51332;SDS011;37417;48.118;11.734;2023-08-17T11:52:03;3.42;;;2.47;;
51332;SDS011;37417;48.118;11.734;2023-08-17T11:54:49;2.38;;;2.28;;
51332;SDS011;37417;48.118;11.734;2023-08-17T11:57:35;2.50;;;2.30;;
51332;SDS011;37417;48.118;11.734;2023-08-17T12:00:22;3.58;;;2.13;;
51332;SDS011;37417;48.118;11.734;2023-08-17T12:03:12;3.28;;;2.50;;
51332;SDS011;37417;48.118;11.734;2023-08-17T12:05:58;3.13;;;2.55;;
51332;SDS011;37417;48.118;11.734;2023-08-17T12:08:45;4.00;;;2.40;;
51332;SDS011;37417;48.118;11.734;2023-08-17T12:11:31;3.92;;;2.10;;
51332;SDS011;37417;48.118;11.734;2023-08-17T12:14:18;4.57;;;1.92;;
51332;SDS011;37417;48.118;11.734;2023-08-17T12:17:05;2.53;;;2.33;;
51332;SDS011;37417;48.118;11.734;2023-08-17T12:19:54;2.80;;;2.53;;
51332;SDS011;37417;48.118;11.734;2023-08-17T12:22:40;2.40;;;2.20;;
51332;SDS011;37417;48.118;11.734;2023-08-17T12:25:26;2.55;;;2.25;;
51332;SDS011;37417;48.118;11.734;2023-08-17T12:28:12;2.45;;;2.25;;
51332;SDS011;37417;48.118;11.734;2023-08-17T12:31:02;2.38;;;2.13;;
51332;SDS011;37417;48.118;11.734;2023-08-17T12:33:48;1.67;;;1.58;;
51332;SDS011;37417;48.118;11.734;2023-08-17T12:36:35;2.47;;;2.00;;
51332;SDS011;37417;48.118;11.734;2023-08-17T12:39:22;2.55;;;2.20;;
51332;SDS011;37417;48.118;11.734;2023-08-17T12:42:08;3.47;;;2.15;;
51332;SDS011;37417;48.118;11.734;2023-08-17T12:44:54;2.22;;;2.03;;
51332;SDS011;37417;48.118;11.734;2023-08-17T12:47:39;2.17;;;2.00;;
51332;SDS011;37417;48.118;11.734;2023-08-17T12:50:25;3.30;;;2.45;;
51332;SDS011;37417;48.118;11.734;2023-08-17T12:53:11;3.22;;;2.22;;
51332;SDS011;37417;48.118;11.734;2023-08-17T12:55:57;3.80;;;2.22;;
51332;SDS011;37417;48.118;11.734;2023-08-17T12:58:43;3.60;;;2.10;;
51332;SDS011;37417;48.118;11.734;2023-08-17T13:01:29;4.28;;;2.55;;
51332;SDS011;37417;48.118;11.734;2023-08-17T13:04:15;2.30;;;2.10;;
51332;SDS011;37417;48.118;11.734;2023-08-17T13:07:00;3.90;;;2.40;;
51332;SDS011;37417;48.118;11.734;2023-08-17T13:09:46;2.42;;;2.22;;
51332;SDS011;37417;48.118;11.734;2023-08-17T13:12:32;2.60;;;2.15;;
51332;SDS011;37417;48.118;11.734;2023-08-17T13:15:17;2.80;;;2.28;;
51332;SDS011;37417;48.118;11.734;2023-08-17T13:18:03;2.47;;;2.13;;
51332;SDS011;37417;48.118;11.734;2023-08-17T13:20:49;2.95;;;2.28;;
51332;SDS011;37417;48.118;11.734;2023-08-17T13:23:34;3.83;;;2.03;;
51332;SDS011;37417;48.118;11.734;2023-08-17T13:26:21;3.22;;;2.25;;
51332;SDS011;37417;48.118;11.734;2023-08-17T13:29:07;2.72;;;1.83;;
51332;SDS011;37417;48.118;11.734;2023-08-17T13:31:54;4.32;;;2.40;;
51332;SDS011;37417;48.118;11.734;2023-08-17T13:34:40;2.53;;;2.30;;
51332;SDS011;37417;48.118;11.734;2023-08-17T13:37:26;4.78;;;2.42;;
51332;SDS011;37417;48.118;11.734;2023-08-17T13:40:13;3.22;;;2.30;;
51332;SDS011;37417;48.118;11.734;2023-08-17T13:42:59;2.88;;;2.47;;
51332;SDS011;37417;48.118;11.734;2023-08-17T13:45:45;3.63;;;2.85;;
51332;SDS011;37417;48.118;11.734;2023-08-17T13:48:31;3.55;;;2.40;;
51332;SDS011;37417;48.118;11.734;2023-08-17T13:51:17;3.85;;;2.40;;
51332;SDS011;37417;48.118;11.734;2023-08-17T13:54:02;1.83;;;1.73;;
51332;SDS011;37417;48.118;11.734;2023-08-17T13:56:48;2.53;;;2.25;;
51332;SDS011;37417;48.118;11.734;2023-08-17T13:59:34;3.22;;;2.33;;
51332;SDS011;37417;48.118;11.734;2023-08-17T14:02:20;2.42;;;2.22;;
51332;SDS011;37417;48.118;11.734;2023-08-17T14:05:06;3.88;;;2.47;;
51332;SDS011;37417;48.118;11.734;2023-08-17T14:07:51;2.17;;;1.95;;
51332;SDS011;37417;48.118;11.734;2023-08-17T14:10:37;2.67;;;1.67;;
51332;SDS011;37417;48.118;11.734;2023-08-17T14:13:23;4.95;;;2.30;;
51332;SDS011;37417;48.118;11.734;2023-08-17T14:16:08;3.45;;;2.40;;
51332;SDS011;37417;48.118;11.734;2023-08-17T14:18:54;2.10;;;1.92;;
51332;SDS011;37417;48.118;11.734;2023-08-17T14:21:40;2.58;;;2.38;;
51332;SDS011;37417;48.118;11.734;2023-08-17T14:24:25;3.53;;;2.42;;
51332;SDS011;37417;48.118;11.734;2023-08-17T14:27:11;2.58;;;1.88;;
51332;SDS011;37417;48.118;11.734;2023-08-17T14:29:56;2.10;;;1.90;;
51332;SDS011;37417;48.118;11.734;2023-08-17T14:32:46;3.78;;;2.08;;
51332;SDS011;37417;48.118;11.734;2023-08-17T14:35:32;2.55;;;2.35;;
51332;SDS011;37417;48.118;11.734;2023-08-17T14:38:17;3.45;;;2.60;;
51332;SDS011;37417;48.118;11.734;2023-08-17T14:41:03;3.03;;;2.40;;
51332;SDS011;37417;48.118;11.734;2023-08-17T14:43:49;3.53;;;2.65;;
51332;SDS011;37417;48.118;11.734;2023-08-17T14:46:35;2.95;;;2.65;;
51332;SDS011;37417;48.118;11.734;2023-08-17T14:49:24;3.63;;;2.85;;
51332;SDS011;37417;48.118;11.734;2023-08-17T14:52:09;5.00;;;2.83;;
51332;SDS011;37417;48.118;11.734;2023-08-17T14:54:55;3.67;;;2.97;;
51332;SDS011;37417;48.118;11.734;2023-08-17T14:57:41;3.85;;;2.97;;
51332;SDS011;37417;48.118;11.734;2023-08-17T15:00:26;3.38;;;3.08;;
51332;SDS011;37417;48.118;11.734;2023-08-17T15:03:15;6.95;;;2.85;;
51332;SDS011;37417;48.118;11.734;2023-08-17T15:06:01;5.03;;;2.92;;
51332;SDS011;37417;48.118;11.734;2023-08-17T15:08:47;3.05;;;2.83;;
51332;SDS011;37417;48.118;11.734;2023-08-17T15:11:32;2.78;;;2.53;;
51332;SDS011;37417;48.118;11.734;2023-08-17T15:14:18;5.30;;;2.92;;
51332;SDS011;37417;48.118;11.734;2023-08-17T15:17:04;4.63;;;3.42;;
51332;SDS011;37417;48.118;11.734;2023-08-17T15:19:49;4.22;;;3.30;;
51332;SDS011;37417;48.118;11.734;2023-08-17T15:22:35;4.10;;;3.47;;
51332;SDS011;37417;48.118;11.734;2023-08-17T15:25:21;3.08;;;2.80;;
51332;SDS011;37417;48.118;11.734;2023-08-17T15:28:06;2.78;;;2.58;;
51332;SDS011;37417;48.118;11.734;2023-08-17T15:31:00;3.40;;;3.10;;
51332;SDS011;37417;48.118;11.734;2023-08-17T15:33:47;2.92;;;2.63;;
51332;SDS011;37417;48.118;11.734;2023-08-17T15:36:33;8.15;;;2.85;;
51332;SDS011;37417;48.118;11.734;2023-08-17T15:39:18;7.03;;;3.40;;
51332;SDS011;37417;48.118;11.734;2023-08-17T15:42:04;3.92;;;3.17;;
51332;SDS011;37417;48.118;11.734;2023-08-17T15:44:50;3.33;;;2.53;;
51332;SDS011;37417;48.118;11.734;2023-08-17T15:47:37;2.85;;;2.65;;
51332;SDS011;37417;48.118;11.734;2023-08-17T15:50:22;5.68;;;3.17;;
51332;SDS011;37417;48.118;11.734;2023-08-17T15:53:08;7.60;;;3.00;;
51332;SDS011;37417;48.118;11.734;2023-08-17T15:55:54;7.75;;;4.10;;
51332;SDS011;37417;48.118;11.734;2023-08-17T15:58:40;5.10;;;3.28;;
51332;SDS011;37417;48.118;11.734;2023-08-17T16:01:27;4.53;;;3.45;;
51332;SDS011;37417;48.118;11.734;2023-08-17T16:04:13;9.50;;;3.50;;
51332;SDS011;37417;48.118;11.734;2023-08-17T16:06:59;9.10;;;3.70;;
51332;SDS011;37417;48.118;11.734;2023-08-17T16:09:45;5.47;;;3.63;;
51332;SDS011;37417;48.118;11.734;2023-08-17T16:12:30;4.47;;;3.55;;
51332;SDS011;37417;48.118;11.734;2023-08-17T16:15:16;9.25;;;3.97;;
51332;SDS011;37417;48.118;11.734;2023-08-17T16:18:02;6.80;;;4.15;;
51332;SDS011;37417;48.118;11.734;2023-08-17T16:20:48;5.20;;;4.03;;
51332;SDS011;37417;48.118;11.734;2023-08-17T16:23:33;9.05;;;4.05;;
51332;SDS011;37417;48.118;11.734;2023-08-17T16:26:19;7.80;;;4.05;;
51332;SDS011;37417;48.118;11.734;2023-08-17T16:29:05;4.43;;;3.50;;
51332;SDS011;37417;48.118;11.734;2023-08-17T16:32:00;7.38;;;4.68;;
51332;SDS011;37417;48.118;11.734;2023-08-17T16:34:47;10.07;;;4.28;;
51332;SDS011;37417;48.118;11.734;2023-08-17T16:37:34;8.35;;;4.05;;
51332;SDS011;37417;48.118;11.734;2023-08-17T16:40:20;11.57;;;4.43;;